createdAt,value
2017-06-22T00:00:18.334Z,9.75
2017-06-22T00:02:44.947Z,14.27
2017-06-22T00:05:11.619Z,10.10
2017-06-22T00:07:38.263Z,13.93
2017-06-22T00:10:04.899Z,16.08
2017-06-22T00:12:31.539Z,9.93
2017-06-22T00:14:58.137Z,9.73
2017-06-22T00:17:24.754Z,12.07
2017-06-22T00:19:51.454Z,13.32
2017-06-22T00:22:18.090Z,12.23
2017-06-22T00:24:44.702Z,10.38
2017-06-22T00:27:11.374Z,9.90
2017-06-22T00:29:37.982Z,10.70
2017-06-22T00:32:04.645Z,9.20
2017-06-22T00:34:31.287Z,11.75
2017-06-22T00:36:57.894Z,10.55
2017-06-22T00:39:24.510Z,14.48
2017-06-22T00:41:51.134Z,12.68
2017-06-22T00:44:17.843Z,12.32
2017-06-22T00:46:44.481Z,10.70
2017-06-22T00:49:11.227Z,10.63
2017-06-22T00:51:37.838Z,10.60
2017-06-22T00:54:04.498Z,16.77
2017-06-22T00:56:31.143Z,9.73
2017-06-22T00:58:57.746Z,8.85
2017-06-22T01:01:24.358Z,10.07
2017-06-22T01:03:50.995Z,10.05
2017-06-22T01:06:17.598Z,10.32
2017-06-22T01:08:44.235Z,12.32
2017-06-22T01:11:10.970Z,9.38
2017-06-22T01:13:37.614Z,10.82
2017-06-22T01:16:04.215Z,9.05
2017-06-22T01:18:30.850Z,13.48
2017-06-22T01:20:57.458Z,11.45
2017-06-22T01:23:24.062Z,9.05
2017-06-22T01:25:50.703Z,10.93
2017-06-22T01:28:17.309Z,10.20
2017-06-22T01:30:43.921Z,10.32
2017-06-22T01:33:10.665Z,17.85
2017-06-22T01:35:37.278Z,11.50
2017-06-22T01:38:03.906Z,11.20
2017-06-22T01:40:30.650Z,10.93
2017-06-22T01:42:57.254Z,13.35
2017-06-22T01:45:23.866Z,10.18
2017-06-22T01:47:50.550Z,13.70
2017-06-22T01:50:17.157Z,12.45
2017-06-22T01:52:43.763Z,9.88
2017-06-22T01:55:10.394Z,9.60
2017-06-22T01:57:36.999Z,10.27
2017-06-22T02:00:03.650Z,10.88
2017-06-22T02:02:30.286Z,12.25
2017-06-22T02:04:56.898Z,14.93
2017-06-22T02:07:23.574Z,12.18
2017-06-22T02:09:50.309Z,11.57
2017-06-22T02:12:16.922Z,11.30
2017-06-22T02:14:43.534Z,12.25
2017-06-22T02:17:10.234Z,11.93
2017-06-22T02:19:36.870Z,13.68
2017-06-22T02:22:03.488Z,10.43
2017-06-22T02:24:30.130Z,9.88
2017-06-22T02:26:56.786Z,11.07
2017-06-22T02:29:23.429Z,10.73
2017-06-22T02:31:50.064Z,13.62
2017-06-22T02:34:16.706Z,11.60
2017-06-22T02:36:43.342Z,14.23
2017-06-22T02:39:10.086Z,11.73
2017-06-22T02:41:36.723Z,11.12
2017-06-22T02:44:03.377Z,12.57
2017-06-22T02:46:30.010Z,16.40
2017-06-22T02:48:56.618Z,10.80
2017-06-22T02:51:23.273Z,11.18
2017-06-22T02:53:49.910Z,13.43
2017-06-22T02:56:16.522Z,11.00
2017-06-22T02:58:43.194Z,10.65
2017-06-22T03:01:09.939Z,9.55
2017-06-22T03:03:36.578Z,10.38
2017-06-22T03:06:03.220Z,10.68
2017-06-22T03:08:29.859Z,10.82
2017-06-22T03:10:56.499Z,9.90
2017-06-22T03:13:23.139Z,13.62
2017-06-22T03:15:49.782Z,12.25
2017-06-22T03:18:16.395Z,10.45
2017-06-22T03:20:43.050Z,12.20
2017-06-22T03:23:09.686Z,10.70
2017-06-22T03:25:36.326Z,15.63
2017-06-22T03:28:02.942Z,15.05
2017-06-22T03:30:29.605Z,15.02
2017-06-22T03:32:56.242Z,17.92
2017-06-22T03:35:22.886Z,14.87
2017-06-22T03:37:49.530Z,16.90
2017-06-22T03:40:16.162Z,17.33
2017-06-22T03:42:42.773Z,17.30
2017-06-22T03:45:09.438Z,17.80
2017-06-22T03:47:36.086Z,18.42
2017-06-22T03:50:02.711Z,17.20
2017-06-22T03:52:29.463Z,16.15
2017-06-22T03:54:56.082Z,19.25
2017-06-22T03:57:22.737Z,16.05
2017-06-22T03:59:49.479Z,16.80
2017-06-22T04:02:16.122Z,16.85
2017-06-22T04:04:42.739Z,18.35
2017-06-22T04:07:09.403Z,15.18
2017-06-22T04:09:36.019Z,15.60
2017-06-22T04:12:02.675Z,16.10
2017-06-22T04:14:29.414Z,15.73
2017-06-22T04:16:56.054Z,17.87
2017-06-22T04:19:22.666Z,13.48
2017-06-22T04:21:49.334Z,19.58
2017-06-22T04:24:15.945Z,15.35
2017-06-22T04:26:42.613Z,14.93
2017-06-22T04:29:09.355Z,12.30
2017-06-22T04:31:35.999Z,12.85
2017-06-22T04:34:02.610Z,13.43
2017-06-22T04:36:29.254Z,14.57
2017-06-22T04:38:55.918Z,13.07
2017-06-22T04:41:22.559Z,13.27
2017-06-22T04:43:49.190Z,13.65
2017-06-22T04:46:15.804Z,15.38
2017-06-22T04:48:42.427Z,15.50
2017-06-22T04:51:09.074Z,19.90
2017-06-22T04:53:35.783Z,15.63
2017-06-22T04:56:02.389Z,16.02
2017-06-22T04:58:29.062Z,15.93
2017-06-22T05:00:55.761Z,16.35
2017-06-22T05:03:22.403Z,18.90
2017-06-22T05:05:49.183Z,19.20
2017-06-22T05:08:15.886Z,18.25
2017-06-22T05:10:42.565Z,21.25
2017-06-22T05:13:09.198Z,17.15
2017-06-22T05:15:35.824Z,18.65
2017-06-22T05:18:02.542Z,19.35
2017-06-22T05:20:29.186Z,14.10
2017-06-22T05:22:55.799Z,18.92
2017-06-22T05:25:22.463Z,23.15
2017-06-22T05:27:49.102Z,18.02
2017-06-22T05:30:15.742Z,22.98
2017-06-22T05:32:43.224Z,17.02
2017-06-22T05:35:09.866Z,16.92
2017-06-22T05:37:36.574Z,16.08
2017-06-22T05:40:03.186Z,14.87
2017-06-22T05:42:29.822Z,16.30
2017-06-22T05:44:56.494Z,14.25
2017-06-22T05:47:23.105Z,18.23
2017-06-22T05:49:49.774Z,15.13
2017-06-22T05:52:16.382Z,14.02
2017-06-22T05:54:43.054Z,19.15
2017-06-22T05:57:09.694Z,17.40
2017-06-22T05:59:36.311Z,14.32
2017-06-22T06:02:02.922Z,13.10
2017-06-22T06:04:29.605Z,15.45
2017-06-22T06:06:56.222Z,13.18
2017-06-22T06:09:22.834Z,15.60
2017-06-22T06:11:49.474Z,16.00
2017-06-22T06:14:16.166Z,12.70
2017-06-22T06:16:42.802Z,13.00
2017-06-22T06:19:09.584Z,13.73
2017-06-22T06:21:36.290Z,17.50
2017-06-22T06:24:02.926Z,9.45
2017-06-22T06:26:29.558Z,9.48
2017-06-22T06:28:56.205Z,9.82
2017-06-22T06:31:22.819Z,8.80
2017-06-22T06:33:49.470Z,10.07
2017-06-22T06:36:16.122Z,11.00
2017-06-22T06:38:42.732Z,9.30
2017-06-22T06:41:09.437Z,11.50
2017-06-22T06:43:36.043Z,12.25
2017-06-22T06:46:02.669Z,8.77
2017-06-22T06:48:29.415Z,9.20
2017-06-22T06:50:56.051Z,9.25
2017-06-22T06:53:22.657Z,10.57
2017-06-22T06:55:49.294Z,11.35
2017-06-22T06:58:15.910Z,8.68
2017-06-22T07:00:42.514Z,9.07
2017-06-22T07:03:09.145Z,10.23
2017-06-22T07:05:35.786Z,8.60
2017-06-22T07:08:02.430Z,11.38
2017-06-22T07:10:29.140Z,12.48
2017-06-22T07:12:55.754Z,7.40
2017-06-22T07:15:22.362Z,9.15
2017-06-22T07:17:49.089Z,9.52
2017-06-22T07:20:15.695Z,9.60
2017-06-22T07:22:42.299Z,9.23
2017-06-22T07:25:08.997Z,8.65
2017-06-22T07:27:35.613Z,8.15
2017-06-22T07:30:02.274Z,8.85
2017-06-22T07:32:29.027Z,8.27
2017-06-22T07:34:55.663Z,9.57
2017-06-22T07:37:22.340Z,9.68
2017-06-22T07:39:49.043Z,9.88
2017-06-22T07:42:15.654Z,10.77
2017-06-22T07:44:42.262Z,9.77
2017-06-22T07:47:08.890Z,10.50
2017-06-22T07:49:35.499Z,10.02
2017-06-22T07:52:02.106Z,9.95
2017-06-22T07:54:28.775Z,7.95
2017-06-22T07:56:55.410Z,8.82
2017-06-22T07:59:22.046Z,9.60
2017-06-22T08:01:48.785Z,8.68
2017-06-22T08:04:15.429Z,9.63
2017-06-22T08:06:42.070Z,10.25
2017-06-22T08:09:08.718Z,10.35
2017-06-22T08:11:35.347Z,9.18
2017-06-22T08:14:01.966Z,11.80
2017-06-22T08:16:28.666Z,10.57
2017-06-22T08:18:55.362Z,10.02
2017-06-22T08:21:22.048Z,9.13
2017-06-22T08:23:48.691Z,9.07
2017-06-22T08:26:15.387Z,10.60
2017-06-22T08:28:42.025Z,10.50
2017-06-22T08:31:08.682Z,11.68
2017-06-22T08:33:35.411Z,9.48
2017-06-22T08:36:02.026Z,10.10
2017-06-22T08:38:28.682Z,10.07
2017-06-22T08:40:55.322Z,10.38
2017-06-22T08:43:21.941Z,10.38
2017-06-22T08:45:48.598Z,9.82
2017-06-22T08:48:15.247Z,9.73
2017-06-22T08:50:41.921Z,10.85
2017-06-22T08:53:08.631Z,12.13
2017-06-22T08:55:35.258Z,9.90
2017-06-22T08:58:01.870Z,11.70
2017-06-22T09:00:28.514Z,12.02
2017-06-22T09:02:55.147Z,11.15
2017-06-22T09:05:21.754Z,11.83
2017-06-22T09:07:48.463Z,14.33
2017-06-22T09:10:15.070Z,12.30
2017-06-22T09:12:41.682Z,12.80
2017-06-22T09:15:08.314Z,13.00
2017-06-22T09:17:35.012Z,11.20
2017-06-22T09:20:01.622Z,16.57
2017-06-22T09:22:28.331Z,12.50
2017-06-22T09:24:55.034Z,12.03
2017-06-22T09:27:21.646Z,12.07
2017-06-22T09:29:48.352Z,15.77
2017-06-22T09:32:15.050Z,12.27
2017-06-22T09:34:41.659Z,12.37
2017-06-22T09:37:08.331Z,12.73
2017-06-22T09:39:34.966Z,11.20
2017-06-22T09:42:01.615Z,11.97
2017-06-22T09:44:28.246Z,13.33
2017-06-22T09:46:54.927Z,12.13
2017-06-22T09:49:21.666Z,13.10
2017-06-22T09:51:48.374Z,13.40
2017-06-22T09:54:15.048Z,11.40
2017-06-22T09:56:41.750Z,12.23
2017-06-22T09:59:08.395Z,13.37
2017-06-22T10:01:35.025Z,15.10
2017-06-22T10:04:01.642Z,11.77
2017-06-22T10:06:28.308Z,11.10
2017-06-22T10:08:55.211Z,16.20
2017-06-22T10:11:21.818Z,10.20
2017-06-22T10:13:48.532Z,10.60
2017-06-22T10:16:15.166Z,11.57
2017-06-22T10:18:41.806Z,10.03
2017-06-22T10:21:08.551Z,10.67
2017-06-22T10:23:35.196Z,11.83
2017-06-22T10:26:01.926Z,9.97
2017-06-22T10:28:28.567Z,13.80
2017-06-22T10:30:55.215Z,10.73
2017-06-22T10:33:21.850Z,9.90
2017-06-22T10:35:48.496Z,9.10
2017-06-22T10:38:15.126Z,9.97
2017-06-22T10:40:43.142Z,10.07
2017-06-22T10:43:09.858Z,9.73
2017-06-22T10:45:36.649Z,9.27
2017-06-22T10:48:03.346Z,8.53
2017-06-22T10:50:29.987Z,9.93
2017-06-22T10:52:56.694Z,8.57
2017-06-22T10:55:23.338Z,9.60
2017-06-22T10:57:50.091Z,9.30
2017-06-22T11:00:17.245Z,9.53
2017-06-22T11:02:44.074Z,8.93
2017-06-22T11:05:10.737Z,8.13
2017-06-22T11:07:37.350Z,9.27
2017-06-22T11:10:03.992Z,9.17
2017-06-22T11:12:30.875Z,8.67
2017-06-22T11:14:57.492Z,9.23
2017-06-22T11:17:24.102Z,8.50
2017-06-22T11:19:52.361Z,8.30
2017-06-22T11:22:19.024Z,8.57
2017-06-22T11:24:46.354Z,9.83
2017-06-22T11:27:13.783Z,8.60
2017-06-22T11:29:42.183Z,9.57
2017-06-22T11:32:09.723Z,8.60
2017-06-22T11:34:38.205Z,8.27
2017-06-22T11:37:04.815Z,9.50
2017-06-22T11:39:31.442Z,9.13
2017-06-22T11:41:58.183Z,8.23
2017-06-22T11:44:24.826Z,10.07
2017-06-22T11:46:51.476Z,7.80
2017-06-22T11:49:18.107Z,9.13
2017-06-22T11:51:45.848Z,11.53
2017-06-22T11:54:12.484Z,9.50
2017-06-22T11:56:39.150Z,8.70
2017-06-22T11:59:05.759Z,8.90
2017-06-22T12:01:32.367Z,8.83
2017-06-22T12:03:59.022Z,8.60
2017-06-22T12:06:25.630Z,7.43
2017-06-22T12:08:52.234Z,8.30
2017-06-22T12:11:18.978Z,7.27
2017-06-22T12:13:45.590Z,13.10
2017-06-22T12:16:12.259Z,14.20
2017-06-22T12:18:38.898Z,8.00
2017-06-22T12:21:05.512Z,7.73
2017-06-22T12:23:32.178Z,7.47
2017-06-22T12:25:59.138Z,8.23
2017-06-22T12:28:25.746Z,7.90
2017-06-22T12:30:52.356Z,6.97
2017-06-22T12:33:18.977Z,8.07
2017-06-22T12:35:45.586Z,9.87
2017-06-22T12:38:12.189Z,6.77
2017-06-22T12:40:39.590Z,7.20
2017-06-22T12:43:06.206Z,7.10
2017-06-22T12:45:32.802Z,6.40
2017-06-22T12:47:59.434Z,7.23
2017-06-22T12:50:26.043Z,7.10
2017-06-22T12:52:52.648Z,6.47
2017-06-22T12:55:19.306Z,7.37
2017-06-22T12:57:45.910Z,6.20
2017-06-22T13:00:12.519Z,10.80
2017-06-22T13:02:39.217Z,6.30
2017-06-22T13:05:05.822Z,5.60
2017-06-22T13:07:32.536Z,5.97
2017-06-22T13:09:59.154Z,9.47
2017-06-22T13:12:25.874Z,6.77
2017-06-22T13:14:52.625Z,7.27
2017-06-22T13:17:19.255Z,6.00
2017-06-22T13:19:45.936Z,5.27
2017-06-22T13:22:12.544Z,5.63
2017-06-22T13:24:39.171Z,5.97
2017-06-22T13:27:05.783Z,6.83
2017-06-22T13:29:32.492Z,6.60
2017-06-22T13:31:59.135Z,7.03
2017-06-22T13:34:25.835Z,5.80
2017-06-22T13:36:52.466Z,7.43
2017-06-22T13:39:19.094Z,7.00
2017-06-22T13:41:45.751Z,6.73
2017-06-22T13:44:12.386Z,6.10
2017-06-22T13:46:39.015Z,6.17
2017-06-22T13:49:05.617Z,5.90
2017-06-22T13:51:32.307Z,5.93
2017-06-22T13:53:59.048Z,9.43
2017-06-22T13:56:25.686Z,9.57
2017-06-22T13:58:52.291Z,9.47
2017-06-22T14:01:18.930Z,7.30
2017-06-22T14:03:45.549Z,7.07
2017-06-22T14:06:12.246Z,6.57
2017-06-22T14:08:38.981Z,6.43
2017-06-22T14:11:05.586Z,6.97
2017-06-22T14:13:32.185Z,7.07
2017-06-22T14:15:59.846Z,6.27
2017-06-22T14:18:26.457Z,8.07
2017-06-22T14:20:53.064Z,9.00
2017-06-22T14:23:19.694Z,8.47
2017-06-22T14:25:46.303Z,7.63
2017-06-22T14:28:12.915Z,7.87
2017-06-22T14:30:39.574Z,6.77
2017-06-22T14:33:06.178Z,6.80
2017-06-22T14:35:32.803Z,7.87
2017-06-22T14:37:59.467Z,6.67
2017-06-22T14:40:26.110Z,8.87
2017-06-22T14:42:52.752Z,7.10
2017-06-22T14:45:19.382Z,6.70
2017-06-22T14:47:46.009Z,7.83
2017-06-22T14:50:12.635Z,7.17
2017-06-22T14:52:39.307Z,7.43
2017-06-22T14:55:05.915Z,7.60
2017-06-22T14:57:32.520Z,7.43
2017-06-22T14:59:59.219Z,8.60
2017-06-22T15:02:25.827Z,8.67
2017-06-22T15:04:52.439Z,7.77
2017-06-22T15:07:19.067Z,9.30
2017-06-22T15:09:45.779Z,8.67
2017-06-22T15:12:12.378Z,9.07
2017-06-22T15:14:39.050Z,9.30
2017-06-22T15:17:05.694Z,9.67
2017-06-22T15:19:32.312Z,9.73
2017-06-22T15:21:58.946Z,9.10
2017-06-22T15:24:25.614Z,10.90
2017-06-22T15:26:52.222Z,10.70
2017-06-22T15:29:18.850Z,9.17
2017-06-22T15:31:45.455Z,9.93
2017-06-22T15:34:12.170Z,9.83
2017-06-22T15:36:38.859Z,12.37
2017-06-22T15:39:05.470Z,9.50
2017-06-22T15:41:32.071Z,9.60
2017-06-22T15:43:58.698Z,8.20
2017-06-22T15:46:25.306Z,10.50
2017-06-22T15:48:52.006Z,13.40
2017-06-22T15:51:18.642Z,11.63
2017-06-22T15:53:45.283Z,9.37
2017-06-22T15:56:11.924Z,10.13
2017-06-22T15:58:38.558Z,11.53
2017-06-22T16:01:05.199Z,10.03
2017-06-22T16:03:31.842Z,10.33
2017-06-22T16:05:58.473Z,10.33
2017-06-22T16:08:25.088Z,10.67
2017-06-22T16:10:51.757Z,10.97
2017-06-22T16:13:18.393Z,11.17
2017-06-22T16:15:44.998Z,10.43
2017-06-22T16:18:11.608Z,12.13
2017-06-22T16:20:38.311Z,11.00
2017-06-22T16:23:04.951Z,13.10
2017-06-22T16:25:31.558Z,11.97
2017-06-22T16:27:58.189Z,11.30
2017-06-22T16:30:24.872Z,13.07
2017-06-22T16:32:51.508Z,11.27
2017-06-22T16:35:18.224Z,10.43
2017-06-22T16:37:44.895Z,10.47
2017-06-22T16:40:11.494Z,10.77
2017-06-22T16:42:38.163Z,15.33
2017-06-22T16:45:04.843Z,12.23
2017-06-22T16:47:31.542Z,10.43
2017-06-22T16:49:58.173Z,11.20
2017-06-22T16:52:24.822Z,10.53
2017-06-22T16:54:51.434Z,12.40
2017-06-22T16:57:18.075Z,9.70
2017-06-22T16:59:44.686Z,11.40
2017-06-22T17:02:11.299Z,12.20
2017-06-22T17:04:37.946Z,12.10
2017-06-22T17:07:04.655Z,12.03
2017-06-22T17:09:31.267Z,10.67
2017-06-22T17:11:57.902Z,10.80
2017-06-22T17:14:24.510Z,11.70
2017-06-22T17:16:51.211Z,10.47
2017-06-22T17:19:17.949Z,11.90
2017-06-22T17:21:44.591Z,15.63
2017-06-22T17:24:11.231Z,11.70
2017-06-22T17:26:37.862Z,11.63
2017-06-22T17:29:04.515Z,12.03
2017-06-22T17:31:31.146Z,11.90
2017-06-22T17:33:57.798Z,11.63
2017-06-22T17:36:24.429Z,11.30
2017-06-22T17:38:51.051Z,13.13
2017-06-22T17:41:17.686Z,12.33
2017-06-22T17:43:44.299Z,12.17
2017-06-22T17:46:10.915Z,12.50
2017-06-22T17:48:37.617Z,12.60
2017-06-22T17:51:04.262Z,13.07
2017-06-22T17:53:30.902Z,12.40
2017-06-22T17:55:57.543Z,12.40
2017-06-22T17:58:24.202Z,11.87
2017-06-22T18:00:50.814Z,12.33
2017-06-22T18:03:17.558Z,12.23
2017-06-22T18:05:44.203Z,14.80
2017-06-22T18:08:10.818Z,16.80
2017-06-22T18:10:37.478Z,12.43
2017-06-22T18:13:04.094Z,13.20
2017-06-22T18:15:30.759Z,13.17
2017-06-22T18:17:57.498Z,12.43
2017-06-22T18:20:24.131Z,11.43
2017-06-22T18:22:50.771Z,11.97
2017-06-22T18:25:17.402Z,12.37
2017-06-22T18:27:44.017Z,11.27
2017-06-22T18:30:10.626Z,12.73
2017-06-22T18:32:37.270Z,12.27
2017-06-22T18:35:03.881Z,12.50
2017-06-22T18:37:30.487Z,11.67
2017-06-22T18:39:57.146Z,12.67
2017-06-22T18:42:23.778Z,13.50
2017-06-22T18:44:50.390Z,13.93
2017-06-22T18:47:17.071Z,11.27
2017-06-22T18:49:43.739Z,12.97
2017-06-22T18:52:10.349Z,12.53
2017-06-22T18:54:36.990Z,11.90
2017-06-22T18:57:03.615Z,12.50
2017-06-22T18:59:30.230Z,14.70
2017-06-22T19:01:56.883Z,13.87
2017-06-22T19:04:23.535Z,13.57
2017-06-22T19:06:50.170Z,13.30
2017-06-22T19:09:16.923Z,14.27
2017-06-22T19:11:43.537Z,13.50
2017-06-22T19:14:10.190Z,13.97
2017-06-22T19:16:36.934Z,14.57
2017-06-22T19:19:03.550Z,15.07
2017-06-22T19:21:30.167Z,11.80
2017-06-22T19:23:56.850Z,11.80
2017-06-22T19:26:23.495Z,15.07
2017-06-22T19:28:50.126Z,11.98
2017-06-22T19:31:16.762Z,11.50
2017-06-22T19:33:43.387Z,11.95
2017-06-22T19:36:10.051Z,11.85
2017-06-22T19:38:36.695Z,12.30
2017-06-22T19:41:03.427Z,11.65
2017-06-22T19:43:30.051Z,11.80
2017-06-22T19:45:56.807Z,12.32
2017-06-22T19:48:23.460Z,17.05
2017-06-22T19:50:50.082Z,13.83
2017-06-22T19:53:16.822Z,12.70
2017-06-22T19:55:43.463Z,13.75
2017-06-22T19:58:10.103Z,11.75
2017-06-22T20:00:36.738Z,13.13
2017-06-22T20:03:03.382Z,8.40
2017-06-22T20:05:30.003Z,16.92
2017-06-22T20:07:56.651Z,16.35
2017-06-22T20:10:23.278Z,19.20
2017-06-22T20:12:49.934Z,15.80
2017-06-22T20:15:16.578Z,14.55
2017-06-22T20:17:43.197Z,19.67
2017-06-22T20:20:09.849Z,13.20
2017-06-22T20:22:36.494Z,14.45
2017-06-22T20:25:03.111Z,14.00
2017-06-22T20:27:29.774Z,14.85
2017-06-22T20:29:56.421Z,15.43
2017-06-22T20:32:23.038Z,13.50
2017-06-22T20:34:49.658Z,13.93
2017-06-22T20:37:16.329Z,14.65
2017-06-22T20:39:42.967Z,14.45
2017-06-22T20:42:09.606Z,15.75
2017-06-22T20:44:36.342Z,14.43
2017-06-22T20:47:02.959Z,15.07
2017-06-22T20:49:29.622Z,14.95
2017-06-22T20:51:56.266Z,16.20
2017-06-22T20:54:22.886Z,14.15
2017-06-22T20:56:49.538Z,13.70
2017-06-22T20:59:16.286Z,14.60
2017-06-22T21:01:42.902Z,14.45
2017-06-22T21:04:09.521Z,15.18
2017-06-22T21:06:37.179Z,15.35
2017-06-22T21:09:03.866Z,15.35
2017-06-22T21:11:30.502Z,15.00
2017-06-22T21:13:57.150Z,16.02
2017-06-22T21:16:23.882Z,15.20
2017-06-22T21:18:50.502Z,13.77
2017-06-22T21:21:17.147Z,15.57
2017-06-22T21:23:43.771Z,14.30
2017-06-22T21:26:10.390Z,15.85
2017-06-22T21:31:07.974Z,15.60
2017-06-22T21:33:34.662Z,15.77
2017-06-22T21:36:01.291Z,16.83
2017-06-22T21:38:27.905Z,17.25
2017-06-22T21:40:54.570Z,15.60
2017-06-22T21:43:21.314Z,14.40
2017-06-22T21:45:47.934Z,15.77
2017-06-22T21:48:14.546Z,16.73
2017-06-22T21:50:41.229Z,16.70
2017-06-22T21:53:07.861Z,16.92
2017-06-22T21:55:34.478Z,16.55
2017-06-22T21:58:01.146Z,17.77
2017-06-22T22:00:27.762Z,18.00
2017-06-22T22:02:54.375Z,17.15
2017-06-22T22:05:21.063Z,17.87
2017-06-22T22:07:47.702Z,16.60
2017-06-22T22:10:14.306Z,18.58
2017-06-22T22:12:40.977Z,18.20
2017-06-22T22:15:07.586Z,19.35
2017-06-22T22:17:34.262Z,16.62
2017-06-22T22:20:00.899Z,22.60
2017-06-22T22:22:27.535Z,15.95
2017-06-22T22:24:54.174Z,16.40
2017-06-22T22:27:20.815Z,15.43
2017-06-22T22:29:47.431Z,19.77
2017-06-22T22:32:14.095Z,16.00
2017-06-22T22:34:40.746Z,16.23
2017-06-22T22:37:07.474Z,16.67
2017-06-22T22:39:34.111Z,17.10
2017-06-22T22:42:00.850Z,16.73
2017-06-22T22:44:27.490Z,17.83
2017-06-22T22:46:54.101Z,17.87
2017-06-22T22:49:20.770Z,16.80
2017-06-22T22:51:47.416Z,15.88
2017-06-22T22:54:14.034Z,16.15
2017-06-22T22:56:40.666Z,19.48
2017-06-22T22:59:07.286Z,19.62
2017-06-22T23:01:33.904Z,21.45
2017-06-22T23:04:00.533Z,17.90
2017-06-22T23:06:27.147Z,17.92
2017-06-22T23:08:53.762Z,17.55
2017-06-22T23:11:20.518Z,15.45
2017-06-22T23:13:47.129Z,15.88
2017-06-22T23:16:13.742Z,15.60
2017-06-22T23:18:40.446Z,16.05
2017-06-22T23:21:07.059Z,15.02
2017-06-22T23:23:33.714Z,14.27
2017-06-22T23:26:00.458Z,13.45
2017-06-22T23:28:27.094Z,18.30
2017-06-22T23:30:53.935Z,15.07
2017-06-22T23:33:20.574Z,14.48
2017-06-22T23:35:47.217Z,13.20
2017-06-22T23:38:13.855Z,17.08
2017-06-22T23:40:40.506Z,12.48
2017-06-22T23:43:07.134Z,14.55
2017-06-22T23:45:33.775Z,13.15
2017-06-22T23:48:00.519Z,14.87
2017-06-22T23:50:27.163Z,12.25
2017-06-22T23:52:53.793Z,13.40
2017-06-22T23:55:20.426Z,16.42
2017-06-22T23:57:47.074Z,12.80
